Alkabo, North Dakota
Current Conditions -  °F | °C
As of 9:52 AM on Friday 31 Oct 2014 (Local Time) from KISN Reporting Station
Overcast Overcast  
Wind Chill: 21°   Ceiling: 1200
Heat Index: 31°   Visibility: 10mi
Dew Point: 25°   Wind: 13mph
Humidity: 79%   Direction: 160°SSE
Pressure: 30.27"   Gusts: 22mph
Location:  48.5901°N, 103.922°W
Report Text: KISN 311452Z AUTO 16011G19KT 10SM OVC012 M01/M04 A3027 RMK AO2 SLP277 T10061039 56026
Loading
Personal Weather Stations






























Interactive Weather Map
Tropical Storm Tracking
New forecast layout! Learn more

10-Day Weather Forecast

Advertisements
Track Severe Weather on mobile